sensor_id;sensor_type;location;lat;lon;timestamp;P1;durP1;ratioP1;P2;durP2;ratioP2
25948;SDS011;13961;51.178;4.448;2023-04-23T00:00:07;41.13;;;23.23;;
25948;SDS011;13961;51.178;4.448;2023-04-23T00:02:37;41.30;;;23.17;;
25948;SDS011;13961;51.178;4.448;2023-04-23T00:05:04;42.60;;;23.80;;
25948;SDS011;13961;51.178;4.448;2023-04-23T00:07:31;41.53;;;23.20;;
25948;SDS011;13961;51.178;4.448;2023-04-23T00:09:57;43.05;;;23.85;;
25948;SDS011;13961;51.178;4.448;2023-04-23T00:12:25;45.65;;;24.17;;
25948;SDS011;13961;51.178;4.448;2023-04-23T00:14:51;42.00;;;22.98;;
25948;SDS011;13961;51.178;4.448;2023-04-23T00:17:17;42.38;;;23.25;;
25948;SDS011;13961;51.178;4.448;2023-04-23T00:19:43;39.78;;;22.25;;
25948;SDS011;13961;51.178;4.448;2023-04-23T00:22:10;42.88;;;23.20;;
25948;SDS011;13961;51.178;4.448;2023-04-23T00:24:37;42.75;;;23.00;;
25948;SDS011;13961;51.178;4.448;2023-04-23T00:27:04;43.80;;;22.15;;
25948;SDS011;13961;51.178;4.448;2023-04-23T00:29:30;37.88;;;20.83;;
25948;SDS011;13961;51.178;4.448;2023-04-23T00:31:56;40.22;;;20.42;;
25948;SDS011;13961;51.178;4.448;2023-04-23T00:34:22;38.60;;;22.17;;
25948;SDS011;13961;51.178;4.448;2023-04-23T00:36:48;42.90;;;21.55;;
25948;SDS011;13961;51.178;4.448;2023-04-23T00:39:13;36.90;;;21.45;;
25948;SDS011;13961;51.178;4.448;2023-04-23T00:41:39;36.58;;;21.63;;
25948;SDS011;13961;51.178;4.448;2023-04-23T00:44:06;38.95;;;21.90;;
25948;SDS011;13961;51.178;4.448;2023-04-23T00:46:36;38.40;;;21.15;;
25948;SDS011;13961;51.178;4.448;2023-04-23T00:49:01;36.72;;;21.23;;
25948;SDS011;13961;51.178;4.448;2023-04-23T00:51:28;37.60;;;21.13;;
25948;SDS011;13961;51.178;4.448;2023-04-23T00:53:54;39.58;;;21.30;;
25948;SDS011;13961;51.178;4.448;2023-04-23T00:56:21;38.28;;;20.30;;
25948;SDS011;13961;51.178;4.448;2023-04-23T00:58:49;35.88;;;20.52;;
25948;SDS011;13961;51.178;4.448;2023-04-23T01:01:16;36.03;;;20.35;;
25948;SDS011;13961;51.178;4.448;2023-04-23T01:03:45;35.40;;;20.40;;
25948;SDS011;13961;51.178;4.448;2023-04-23T01:06:16;35.58;;;20.88;;
25948;SDS011;13961;51.178;4.448;2023-04-23T01:08:43;37.75;;;20.02;;
25948;SDS011;13961;51.178;4.448;2023-04-23T01:11:10;36.72;;;20.33;;
25948;SDS011;13961;51.178;4.448;2023-04-23T01:13:38;36.38;;;20.83;;
25948;SDS011;13961;51.178;4.448;2023-04-23T01:16:06;34.80;;;19.98;;
25948;SDS011;13961;51.178;4.448;2023-04-23T01:18:32;37.05;;;19.85;;
25948;SDS011;13961;51.178;4.448;2023-04-23T01:20:58;30.67;;;19.23;;
25948;SDS011;13961;51.178;4.448;2023-04-23T01:23:24;39.20;;;19.67;;
25948;SDS011;13961;51.178;4.448;2023-04-23T01:25:51;34.13;;;18.67;;
25948;SDS011;13961;51.178;4.448;2023-04-23T01:28:17;33.30;;;19.83;;
25948;SDS011;13961;51.178;4.448;2023-04-23T01:30:43;31.38;;;19.17;;
25948;SDS011;13961;51.178;4.448;2023-04-23T01:33:11;30.70;;;18.58;;
25948;SDS011;13961;51.178;4.448;2023-04-23T01:35:38;31.75;;;18.83;;
25948;SDS011;13961;51.178;4.448;2023-04-23T01:38:06;36.30;;;19.73;;
25948;SDS011;13961;51.178;4.448;2023-04-23T01:40:35;35.10;;;18.40;;
25948;SDS011;13961;51.178;4.448;2023-04-23T01:43:02;36.78;;;19.00;;
25948;SDS011;13961;51.178;4.448;2023-04-23T01:45:30;34.75;;;18.80;;
25948;SDS011;13961;51.178;4.448;2023-04-23T01:47:55;35.33;;;20.45;;
25948;SDS011;13961;51.178;4.448;2023-04-23T01:50:22;32.45;;;18.58;;
25948;SDS011;13961;51.178;4.448;2023-04-23T01:52:50;32.95;;;19.58;;
25948;SDS011;13961;51.178;4.448;2023-04-23T01:55:16;36.10;;;19.77;;
25948;SDS011;13961;51.178;4.448;2023-04-23T01:57:43;33.53;;;19.38;;
25948;SDS011;13961;51.178;4.448;2023-04-23T02:00:10;32.45;;;19.17;;
25948;SDS011;13961;51.178;4.448;2023-04-23T02:02:37;35.08;;;19.95;;
25948;SDS011;13961;51.178;4.448;2023-04-23T02:05:09;32.70;;;18.90;;
25948;SDS011;13961;51.178;4.448;2023-04-23T02:07:40;33.08;;;18.15;;
25948;SDS011;13961;51.178;4.448;2023-04-23T02:10:07;34.17;;;18.80;;
25948;SDS011;13961;51.178;4.448;2023-04-23T02:12:35;35.55;;;19.60;;
25948;SDS011;13961;51.178;4.448;2023-04-23T02:15:02;33.53;;;18.77;;
25948;SDS011;13961;51.178;4.448;2023-04-23T02:17:28;33.47;;;18.77;;
25948;SDS011;13961;51.178;4.448;2023-04-23T02:19:54;34.40;;;19.60;;
25948;SDS011;13961;51.178;4.448;2023-04-23T02:22:21;30.70;;;18.23;;
25948;SDS011;13961;51.178;4.448;2023-04-23T02:24:49;31.40;;;18.52;;
25948;SDS011;13961;51.178;4.448;2023-04-23T02:27:15;36.80;;;19.48;;
25948;SDS011;13961;51.178;4.448;2023-04-23T02:29:41;32.15;;;19.13;;
25948;SDS011;13961;51.178;4.448;2023-04-23T02:32:07;32.17;;;19.10;;
25948;SDS011;13961;51.178;4.448;2023-04-23T02:34:33;29.92;;;18.15;;
25948;SDS011;13961;51.178;4.448;2023-04-23T02:36:59;31.85;;;18.98;;
25948;SDS011;13961;51.178;4.448;2023-04-23T02:39:24;33.08;;;18.15;;
25948;SDS011;13961;51.178;4.448;2023-04-23T02:41:50;33.40;;;17.73;;
25948;SDS011;13961;51.178;4.448;2023-04-23T02:44:16;30.00;;;18.13;;
25948;SDS011;13961;51.178;4.448;2023-04-23T02:46:41;28.48;;;17.90;;
25948;SDS011;13961;51.178;4.448;2023-04-23T02:49:07;30.73;;;17.63;;
25948;SDS011;13961;51.178;4.448;2023-04-23T02:51:33;27.25;;;17.10;;
25948;SDS011;13961;51.178;4.448;2023-04-23T02:53:58;29.30;;;17.13;;
25948;SDS011;13961;51.178;4.448;2023-04-23T02:56:24;30.35;;;17.23;;
25948;SDS011;13961;51.178;4.448;2023-04-23T02:58:51;30.35;;;18.02;;
25948;SDS011;13961;51.178;4.448;2023-04-23T03:01:17;30.73;;;17.02;;
25948;SDS011;13961;51.178;4.448;2023-04-23T03:03:43;26.33;;;16.20;;
25948;SDS011;13961;51.178;4.448;2023-04-23T03:06:09;25.65;;;16.00;;
25948;SDS011;13961;51.178;4.448;2023-04-23T03:08:34;30.38;;;16.83;;
25948;SDS011;13961;51.178;4.448;2023-04-23T03:11:00;29.77;;;16.55;;
25948;SDS011;13961;51.178;4.448;2023-04-23T03:13:26;32.95;;;17.30;;
25948;SDS011;13961;51.178;4.448;2023-04-23T03:15:52;27.85;;;17.25;;
25948;SDS011;13961;51.178;4.448;2023-04-23T03:18:18;28.52;;;16.35;;
25948;SDS011;13961;51.178;4.448;2023-04-23T03:20:44;29.77;;;16.50;;
25948;SDS011;13961;51.178;4.448;2023-04-23T03:23:11;32.67;;;17.42;;
25948;SDS011;13961;51.178;4.448;2023-04-23T03:25:37;26.10;;;15.82;;
25948;SDS011;13961;51.178;4.448;2023-04-23T03:28:02;32.28;;;17.42;;
25948;SDS011;13961;51.178;4.448;2023-04-23T03:30:29;26.55;;;15.82;;
25948;SDS011;13961;51.178;4.448;2023-04-23T03:32:55;26.88;;;15.65;;
25948;SDS011;13961;51.178;4.448;2023-04-23T03:35:24;26.27;;;15.73;;
25948;SDS011;13961;51.178;4.448;2023-04-23T03:37:50;29.13;;;16.10;;
25948;SDS011;13961;51.178;4.448;2023-04-23T03:40:19;24.58;;;15.05;;
25948;SDS011;13961;51.178;4.448;2023-04-23T03:42:46;28.65;;;15.95;;
25948;SDS011;13961;51.178;4.448;2023-04-23T03:45:13;26.55;;;15.63;;
25948;SDS011;13961;51.178;4.448;2023-04-23T03:47:40;26.05;;;15.10;;
25948;SDS011;13961;51.178;4.448;2023-04-23T03:50:07;27.55;;;15.52;;
25948;SDS011;13961;51.178;4.448;2023-04-23T03:52:33;25.95;;;14.25;;
25948;SDS011;13961;51.178;4.448;2023-04-23T03:55:00;22.55;;;14.10;;
25948;SDS011;13961;51.178;4.448;2023-04-23T03:57:26;21.33;;;13.50;;
25948;SDS011;13961;51.178;4.448;2023-04-23T03:59:52;25.33;;;14.40;;
25948;SDS011;13961;51.178;4.448;2023-04-23T04:02:18;23.42;;;13.70;;
25948;SDS011;13961;51.178;4.448;2023-04-23T04:04:44;26.02;;;14.43;;
25948;SDS011;13961;51.178;4.448;2023-04-23T04:07:10;25.63;;;14.20;;
25948;SDS011;13961;51.178;4.448;2023-04-23T04:09:37;24.70;;;14.32;;
25948;SDS011;13961;51.178;4.448;2023-04-23T04:12:04;23.42;;;13.13;;
25948;SDS011;13961;51.178;4.448;2023-04-23T04:14:30;27.20;;;13.73;;
25948;SDS011;13961;51.178;4.448;2023-04-23T04:16:56;22.90;;;13.57;;
25948;SDS011;13961;51.178;4.448;2023-04-23T04:19:22;23.50;;;13.30;;
25948;SDS011;13961;51.178;4.448;2023-04-23T04:21:48;23.92;;;13.38;;
25948;SDS011;13961;51.178;4.448;2023-04-23T04:24:15;24.80;;;13.48;;
25948;SDS011;13961;51.178;4.448;2023-04-23T04:26:42;24.42;;;12.98;;
25948;SDS011;13961;51.178;4.448;2023-04-23T04:29:09;27.23;;;13.77;;
25948;SDS011;13961;51.178;4.448;2023-04-23T04:31:35;23.95;;;13.73;;
25948;SDS011;13961;51.178;4.448;2023-04-23T04:34:01;19.88;;;12.30;;
25948;SDS011;13961;51.178;4.448;2023-04-23T04:36:27;21.38;;;12.50;;
25948;SDS011;13961;51.178;4.448;2023-04-23T04:38:54;22.13;;;12.82;;
25948;SDS011;13961;51.178;4.448;2023-04-23T04:41:22;20.52;;;12.60;;
25948;SDS011;13961;51.178;4.448;2023-04-23T04:43:49;22.60;;;11.85;;
25948;SDS011;13961;51.178;4.448;2023-04-23T04:46:16;20.27;;;11.85;;
25948;SDS011;13961;51.178;4.448;2023-04-23T04:48:44;24.67;;;13.10;;
25948;SDS011;13961;51.178;4.448;2023-04-23T04:51:13;23.80;;;13.05;;
25948;SDS011;13961;51.178;4.448;2023-04-23T04:53:40;21.33;;;13.05;;
25948;SDS011;13961;51.178;4.448;2023-04-23T04:56:06;17.95;;;11.75;;
25948;SDS011;13961;51.178;4.448;2023-04-23T04:58:32;21.63;;;11.88;;
25948;SDS011;13961;51.178;4.448;2023-04-23T05:00:59;22.13;;;12.23;;
25948;SDS011;13961;51.178;4.448;2023-04-23T05:03:25;26.00;;;13.07;;
25948;SDS011;13961;51.178;4.448;2023-04-23T05:05:52;21.05;;;12.50;;
25948;SDS011;13961;51.178;4.448;2023-04-23T05:08:22;21.33;;;12.77;;
25948;SDS011;13961;51.178;4.448;2023-04-23T05:10:49;20.10;;;11.63;;
25948;SDS011;13961;51.178;4.448;2023-04-23T05:13:16;22.70;;;11.73;;
25948;SDS011;13961;51.178;4.448;2023-04-23T05:15:42;22.45;;;12.02;;
25948;SDS011;13961;51.178;4.448;2023-04-23T05:18:09;21.40;;;12.10;;
25948;SDS011;13961;51.178;4.448;2023-04-23T05:20:35;21.85;;;12.38;;
25948;SDS011;13961;51.178;4.448;2023-04-23T05:23:02;18.48;;;12.05;;
25948;SDS011;13961;51.178;4.448;2023-04-23T05:25:28;22.83;;;11.82;;
25948;SDS011;13961;51.178;4.448;2023-04-23T05:27:55;24.38;;;12.88;;
25948;SDS011;13961;51.178;4.448;2023-04-23T05:30:21;24.48;;;12.93;;
25948;SDS011;13961;51.178;4.448;2023-04-23T05:32:47;20.92;;;11.88;;
25948;SDS011;13961;51.178;4.448;2023-04-23T05:35:14;22.02;;;11.82;;
25948;SDS011;13961;51.178;4.448;2023-04-23T05:37:40;21.75;;;11.80;;
25948;SDS011;13961;51.178;4.448;2023-04-23T05:40:06;22.05;;;11.63;;
25948;SDS011;13961;51.178;4.448;2023-04-23T05:42:33;22.25;;;12.60;;
25948;SDS011;13961;51.178;4.448;2023-04-23T05:45:00;21.67;;;11.90;;
25948;SDS011;13961;51.178;4.448;2023-04-23T05:47:26;19.55;;;10.60;;
25948;SDS011;13961;51.178;4.448;2023-04-23T05:49:52;20.25;;;10.45;;
25948;SDS011;13961;51.178;4.448;2023-04-23T05:52:18;20.80;;;11.43;;
25948;SDS011;13961;51.178;4.448;2023-04-23T05:54:44;20.27;;;11.10;;
25948;SDS011;13961;51.178;4.448;2023-04-23T05:57:10;17.70;;;10.52;;
25948;SDS011;13961;51.178;4.448;2023-04-23T05:59:36;21.77;;;10.55;;
25948;SDS011;13961;51.178;4.448;2023-04-23T06:02:02;18.90;;;10.77;;
25948;SDS011;13961;51.178;4.448;2023-04-23T06:04:28;17.80;;;10.23;;
25948;SDS011;13961;51.178;4.448;2023-04-23T06:06:53;17.40;;;9.65;;
25948;SDS011;13961;51.178;4.448;2023-04-23T06:09:19;18.08;;;10.05;;
25948;SDS011;13961;51.178;4.448;2023-04-23T06:11:45;14.63;;;8.93;;
25948;SDS011;13961;51.178;4.448;2023-04-23T06:14:10;18.83;;;9.10;;
25948;SDS011;13961;51.178;4.448;2023-04-23T06:16:36;14.65;;;7.95;;
25948;SDS011;13961;51.178;4.448;2023-04-23T06:19:02;15.57;;;7.22;;
25948;SDS011;13961;51.178;4.448;2023-04-23T06:21:28;13.40;;;7.45;;
25948;SDS011;13961;51.178;4.448;2023-04-23T06:23:54;12.57;;;6.18;;
25948;SDS011;13961;51.178;4.448;2023-04-23T06:26:20;11.80;;;6.68;;
25948;SDS011;13961;51.178;4.448;2023-04-23T06:28:45;10.73;;;6.13;;
25948;SDS011;13961;51.178;4.448;2023-04-23T06:31:11;10.82;;;5.45;;
25948;SDS011;13961;51.178;4.448;2023-04-23T06:33:37;8.05;;;4.65;;
25948;SDS011;13961;51.178;4.448;2023-04-23T06:36:03;11.35;;;4.43;;
25948;SDS011;13961;51.178;4.448;2023-04-23T06:38:30;6.57;;;4.05;;
25948;SDS011;13961;51.178;4.448;2023-04-23T06:40:56;7.38;;;3.92;;
25948;SDS011;13961;51.178;4.448;2023-04-23T06:43:23;9.13;;;3.90;;
25948;SDS011;13961;51.178;4.448;2023-04-23T06:45:49;8.68;;;3.80;;
25948;SDS011;13961;51.178;4.448;2023-04-23T06:48:15;7.07;;;3.50;;
25948;SDS011;13961;51.178;4.448;2023-04-23T06:50:42;8.70;;;3.50;;
25948;SDS011;13961;51.178;4.448;2023-04-23T06:53:08;6.13;;;3.20;;
25948;SDS011;13961;51.178;4.448;2023-04-23T06:55:34;5.68;;;3.10;;
25948;SDS011;13961;51.178;4.448;2023-04-23T06:58:00;6.75;;;3.30;;
25948;SDS011;13961;51.178;4.448;2023-04-23T07:00:25;8.20;;;3.28;;
25948;SDS011;13961;51.178;4.448;2023-04-23T07:02:51;9.95;;;3.65;;
25948;SDS011;13961;51.178;4.448;2023-04-23T07:05:17;10.52;;;3.22;;
25948;SDS011;13961;51.178;4.448;2023-04-23T07:07:43;5.30;;;3.00;;
25948;SDS011;13961;51.178;4.448;2023-04-23T07:10:09;7.60;;;3.25;;
25948;SDS011;13961;51.178;4.448;2023-04-23T07:12:37;7.82;;;3.28;;
25948;SDS011;13961;51.178;4.448;2023-04-23T07:15:03;6.75;;;3.20;;
25948;SDS011;13961;51.178;4.448;2023-04-23T07:17:30;9.02;;;2.85;;
25948;SDS011;13961;51.178;4.448;2023-04-23T07:19:56;6.18;;;3.22;;
25948;SDS011;13961;51.178;4.448;2023-04-23T07:22:22;8.85;;;2.95;;
25948;SDS011;13961;51.178;4.448;2023-04-23T07:24:49;9.45;;;2.83;;
25948;SDS011;13961;51.178;4.448;2023-04-23T07:27:15;8.98;;;2.88;;
25948;SDS011;13961;51.178;4.448;2023-04-23T07:29:42;7.03;;;2.70;;
25948;SDS011;13961;51.178;4.448;2023-04-23T07:32:08;7.18;;;2.90;;
25948;SDS011;13961;51.178;4.448;2023-04-23T07:34:33;6.05;;;2.90;;
25948;SDS011;13961;51.178;4.448;2023-04-23T07:37:01;7.07;;;2.65;;
25948;SDS011;13961;51.178;4.448;2023-04-23T07:39:27;8.35;;;2.40;;
25948;SDS011;13961;51.178;4.448;2023-04-23T07:41:53;7.72;;;2.65;;
25948;SDS011;13961;51.178;4.448;2023-04-23T07:44:19;5.47;;;2.38;;
25948;SDS011;13961;51.178;4.448;2023-04-23T07:46:44;6.05;;;2.33;;
25948;SDS011;13961;51.178;4.448;2023-04-23T07:49:10;8.55;;;2.63;;
25948;SDS011;13961;51.178;4.448;2023-04-23T07:51:36;9.30;;;2.35;;
25948;SDS011;13961;51.178;4.448;2023-04-23T07:54:02;7.05;;;2.28;;
25948;SDS011;13961;51.178;4.448;2023-04-23T07:56:28;7.10;;;2.35;;
25948;SDS011;13961;51.178;4.448;2023-04-23T07:58:56;10.25;;;2.47;;
25948;SDS011;13961;51.178;4.448;2023-04-23T08:01:22;5.55;;;2.38;;
25948;SDS011;13961;51.178;4.448;2023-04-23T08:03:48;6.07;;;2.25;;
25948;SDS011;13961;51.178;4.448;2023-04-23T08:06:14;6.32;;;2.10;;
25948;SDS011;13961;51.178;4.448;2023-04-23T08:08:40;7.13;;;1.88;;
25948;SDS011;13961;51.178;4.448;2023-04-23T08:11:06;5.72;;;2.28;;
25948;SDS011;13961;51.178;4.448;2023-04-23T08:13:32;7.85;;;1.70;;
25948;SDS011;13961;51.178;4.448;2023-04-23T08:15:58;9.50;;;2.03;;
25948;SDS011;13961;51.178;4.448;2023-04-23T08:18:24;5.75;;;1.85;;
25948;SDS011;13961;51.178;4.448;2023-04-23T08:20:50;8.35;;;2.00;;
25948;SDS011;13961;51.178;4.448;2023-04-23T08:23:16;7.82;;;2.15;;
25948;SDS011;13961;51.178;4.448;2023-04-23T08:25:41;6.32;;;1.67;;
25948;SDS011;13961;51.178;4.448;2023-04-23T08:28:07;10.15;;;1.95;;
25948;SDS011;13961;51.178;4.448;2023-04-23T08:30:34;5.53;;;1.73;;
25948;SDS011;13961;51.178;4.448;2023-04-23T08:33:00;6.10;;;1.40;;
25948;SDS011;13961;51.178;4.448;2023-04-23T08:35:25;5.95;;;1.80;;
25948;SDS011;13961;51.178;4.448;2023-04-23T08:37:51;4.15;;;1.42;;
25948;SDS011;13961;51.178;4.448;2023-04-23T08:40:17;5.35;;;1.50;;
25948;SDS011;13961;51.178;4.448;2023-04-23T08:42:49;5.28;;;1.63;;
25948;SDS011;13961;51.178;4.448;2023-04-23T08:45:22;5.10;;;1.90;;
25948;SDS011;13961;51.178;4.448;2023-04-23T08:47:48;7.82;;;2.10;;
25948;SDS011;13961;51.178;4.448;2023-04-23T08:50:15;6.53;;;1.38;;
25948;SDS011;13961;51.178;4.448;2023-04-23T08:52:45;6.13;;;1.73;;
25948;SDS011;13961;51.178;4.448;2023-04-23T08:55:14;5.32;;;1.80;;
25948;SDS011;13961;51.178;4.448;2023-04-23T08:57:42;5.75;;;1.70;;
25948;SDS011;13961;51.178;4.448;2023-04-23T09:00:12;6.18;;;1.50;;
25948;SDS011;13961;51.178;4.448;2023-04-23T09:02:50;4.65;;;1.60;;
25948;SDS011;13961;51.178;4.448;2023-04-23T09:05:16;9.10;;;2.05;;
25948;SDS011;13961;51.178;4.448;2023-04-23T09:07:42;6.53;;;1.52;;
25948;SDS011;13961;51.178;4.448;2023-04-23T09:10:08;6.28;;;1.27;;
25948;SDS011;13961;51.178;4.448;2023-04-23T09:12:39;4.47;;;1.77;;
25948;SDS011;13961;51.178;4.448;2023-04-23T09:15:06;6.47;;;1.30;;
25948;SDS011;13961;51.178;4.448;2023-04-23T09:17:35;5.68;;;1.50;;
25948;SDS011;13961;51.178;4.448;2023-04-23T09:20:07;7.03;;;1.83;;
25948;SDS011;13961;51.178;4.448;2023-04-23T09:25:13;4.90;;;1.13;;
25948;SDS011;13961;51.178;4.448;2023-04-23T09:27:41;8.15;;;2.20;;
25948;SDS011;13961;51.178;4.448;2023-04-23T09:30:07;6.80;;;1.50;;
25948;SDS011;13961;51.178;4.448;2023-04-23T09:32:35;4.75;;;1.17;;
25948;SDS011;13961;51.178;4.448;2023-04-23T09:35:05;4.90;;;1.42;;
25948;SDS011;13961;51.178;4.448;2023-04-23T09:37:36;4.88;;;1.20;;
25948;SDS011;13961;51.178;4.448;2023-04-23T09:40:05;4.63;;;1.38;;
25948;SDS011;13961;51.178;4.448;2023-04-23T09:42:35;6.55;;;1.10;;
25948;SDS011;13961;51.178;4.448;2023-04-23T09:45:02;6.63;;;1.17;;
25948;SDS011;13961;51.178;4.448;2023-04-23T09:47:32;4.55;;;1.38;;
25948;SDS011;13961;51.178;4.448;2023-04-23T09:49:59;4.40;;;1.17;;
25948;SDS011;13961;51.178;4.448;2023-04-23T09:52:25;4.22;;;1.20;;
25948;SDS011;13961;51.178;4.448;2023-04-23T09:54:54;3.08;;;1.23;;
25948;SDS011;13961;51.178;4.448;2023-04-23T09:57:23;3.92;;;1.33;;
25948;SDS011;13961;51.178;4.448;2023-04-23T09:59:49;4.20;;;1.23;;
25948;SDS011;13961;51.178;4.448;2023-04-23T10:02:15;3.83;;;1.45;;
25948;SDS011;13961;51.178;4.448;2023-04-23T10:04:42;4.60;;;1.38;;
25948;SDS011;13961;51.178;4.448;2023-04-23T10:07:08;5.75;;;1.58;;
25948;SDS011;13961;51.178;4.448;2023-04-23T10:09:37;4.88;;;1.30;;
25948;SDS011;13961;51.178;4.448;2023-04-23T10:12:05;6.10;;;1.40;;
25948;SDS011;13961;51.178;4.448;2023-04-23T10:14:32;8.00;;;1.40;;
25948;SDS011;13961;51.178;4.448;2023-04-23T10:17:02;4.50;;;1.10;;
25948;SDS011;13961;51.178;4.448;2023-04-23T10:19:29;4.05;;;1.13;;
25948;SDS011;13961;51.178;4.448;2023-04-23T10:21:57;5.03;;;1.20;;
25948;SDS011;13961;51.178;4.448;2023-04-23T10:24:28;4.28;;;1.15;;
25948;SDS011;13961;51.178;4.448;2023-04-23T10:29:29;5.97;;;1.45;;
25948;SDS011;13961;51.178;4.448;2023-04-23T10:32:00;4.57;;;1.27;;
25948;SDS011;13961;51.178;4.448;2023-04-23T10:34:27;5.03;;;1.20;;
25948;SDS011;13961;51.178;4.448;2023-04-23T10:36:55;6.50;;;1.20;;
25948;SDS011;13961;51.178;4.448;2023-04-23T10:39:24;3.38;;;1.13;;
25948;SDS011;13961;51.178;4.448;2023-04-23T10:41:55;3.63;;;0.90;;
25948;SDS011;13961;51.178;4.448;2023-04-23T10:44:27;7.72;;;1.40;;
25948;SDS011;13961;51.178;4.448;2023-04-23T10:47:01;5.30;;;1.08;;
25948;SDS011;13961;51.178;4.448;2023-04-23T10:49:32;7.00;;;1.25;;
25948;SDS011;13961;51.178;4.448;2023-04-23T10:52:02;5.97;;;1.17;;
25948;SDS011;13961;51.178;4.448;2023-04-23T10:54:32;8.13;;;1.50;;
25948;SDS011;13961;51.178;4.448;2023-04-23T10:56:59;3.65;;;0.98;;
25948;SDS011;13961;51.178;4.448;2023-04-23T10:59:27;2.53;;;0.70;;
25948;SDS011;13961;51.178;4.448;2023-04-23T11:01:55;5.35;;;1.08;;
25948;SDS011;13961;51.178;4.448;2023-04-23T11:04:25;4.03;;;1.00;;
25948;SDS011;13961;51.178;4.448;2023-04-23T11:11:56;6.82;;;1.52;;
25948;SDS011;13961;51.178;4.448;2023-04-23T11:14:40;7.47;;;1.35;;
25948;SDS011;13961;51.178;4.448;2023-04-23T11:17:12;4.25;;;1.10;;
25948;SDS011;13961;51.178;4.448;2023-04-23T11:19:40;4.15;;;1.60;;
25948;SDS011;13961;51.178;4.448;2023-04-23T11:22:26;3.67;;;1.25;;
25948;SDS011;13961;51.178;4.448;2023-04-23T11:24:59;5.28;;;1.40;;
25948;SDS011;13961;51.178;4.448;2023-04-23T11:27:26;5.28;;;1.25;;
25948;SDS011;13961;51.178;4.448;2023-04-23T11:29:54;4.88;;;1.10;;
25948;SDS011;13961;51.178;4.448;2023-04-23T11:32:21;4.78;;;1.10;;
25948;SDS011;13961;51.178;4.448;2023-04-23T11:34:47;3.63;;;0.90;;
25948;SDS011;13961;51.178;4.448;2023-04-23T11:37:14;4.20;;;1.00;;
25948;SDS011;13961;51.178;4.448;2023-04-23T11:39:42;6.53;;;1.27;;
25948;SDS011;13961;51.178;4.448;2023-04-23T11:42:12;3.42;;;1.08;;
25948;SDS011;13961;51.178;4.448;2023-04-23T11:44:39;3.80;;;1.10;;
25948;SDS011;13961;51.178;4.448;2023-04-23T11:47:10;4.93;;;1.00;;
25948;SDS011;13961;51.178;4.448;2023-04-23T11:49:38;5.72;;;1.33;;
25948;SDS011;13961;51.178;4.448;2023-04-23T11:52:05;6.97;;;1.42;;
25948;SDS011;13961;51.178;4.448;2023-04-23T11:54:31;3.08;;;1.02;;
25948;SDS011;13961;51.178;4.448;2023-04-23T11:56:58;8.32;;;0.90;;
25948;SDS011;13961;51.178;4.448;2023-04-23T11:59:26;4.43;;;1.30;;
25948;SDS011;13961;51.178;4.448;2023-04-23T12:01:53;3.70;;;1.20;;
25948;SDS011;13961;51.178;4.448;2023-04-23T12:04:26;4.40;;;1.13;;
25948;SDS011;13961;51.178;4.448;2023-04-23T12:06:53;4.82;;;1.20;;
25948;SDS011;13961;51.178;4.448;2023-04-23T12:09:23;5.57;;;1.27;;
25948;SDS011;13961;51.178;4.448;2023-04-23T12:11:52;4.97;;;1.20;;
25948;SDS011;13961;51.178;4.448;2023-04-23T12:14:19;9.10;;;1.20;;
25948;SDS011;13961;51.178;4.448;2023-04-23T12:16:52;4.32;;;1.20;;
25948;SDS011;13961;51.178;4.448;2023-04-23T12:19:19;3.63;;;1.30;;
25948;SDS011;13961;51.178;4.448;2023-04-23T12:21:53;4.53;;;1.00;;
25948;SDS011;13961;51.178;4.448;2023-04-23T12:24:22;7.80;;;1.65;;
25948;SDS011;13961;51.178;4.448;2023-04-23T12:26:53;6.43;;;1.23;;
25948;SDS011;13961;51.178;4.448;2023-04-23T12:29:21;5.75;;;1.25;;
25948;SDS011;13961;51.178;4.448;2023-04-23T12:31:48;3.45;;;1.10;;
25948;SDS011;13961;51.178;4.448;2023-04-23T12:34:19;6.10;;;1.30;;
25948;SDS011;13961;51.178;4.448;2023-04-23T12:36:49;4.75;;;1.15;;
25948;SDS011;13961;51.178;4.448;2023-04-23T12:41:52;4.70;;;1.13;;
25948;SDS011;13961;51.178;4.448;2023-04-23T12:44:19;5.47;;;1.13;;
25948;SDS011;13961;51.178;4.448;2023-04-23T12:46:48;4.72;;;1.17;;
25948;SDS011;13961;51.178;4.448;2023-04-23T12:49:21;4.78;;;1.17;;
25948;SDS011;13961;51.178;4.448;2023-04-23T12:51:47;7.93;;;1.48;;
25948;SDS011;13961;51.178;4.448;2023-04-23T12:54:16;6.18;;;1.48;;
25948;SDS011;13961;51.178;4.448;2023-04-23T12:56:41;4.10;;;1.23;;
25948;SDS011;13961;51.178;4.448;2023-04-23T12:59:07;9.10;;;1.40;;
25948;SDS011;13961;51.178;4.448;2023-04-23T13:01:33;5.47;;;1.70;;
25948;SDS011;13961;51.178;4.448;2023-04-23T13:03:59;8.40;;;1.85;;
25948;SDS011;13961;51.178;4.448;2023-04-23T13:06:24;7.10;;;1.38;;
25948;SDS011;13961;51.178;4.448;2023-04-23T13:08:50;4.28;;;1.52;;
25948;SDS011;13961;51.178;4.448;2023-04-23T13:11:16;10.00;;;1.85;;
25948;SDS011;13961;51.178;4.448;2023-04-23T13:13:42;3.47;;;1.40;;
25948;SDS011;13961;51.178;4.448;2023-04-23T13:16:08;4.35;;;1.70;;
25948;SDS011;13961;51.178;4.448;2023-04-23T13:18:34;5.72;;;1.70;;
25948;SDS011;13961;51.178;4.448;2023-04-23T13:21:00;5.13;;;1.52;;
25948;SDS011;13961;51.178;4.448;2023-04-23T13:23:26;2.33;;;1.33;;
25948;SDS011;13961;51.178;4.448;2023-04-23T13:25:52;7.93;;;1.40;;
25948;SDS011;13961;51.178;4.448;2023-04-23T13:28:17;6.05;;;1.85;;
25948;SDS011;13961;51.178;4.448;2023-04-23T13:30:43;6.05;;;1.42;;
25948;SDS011;13961;51.178;4.448;2023-04-23T13:33:09;3.90;;;1.40;;
25948;SDS011;13961;51.178;4.448;2023-04-23T13:35:34;5.47;;;1.33;;
25948;SDS011;13961;51.178;4.448;2023-04-23T13:38:03;5.43;;;1.40;;
25948;SDS011;13961;51.178;4.448;2023-04-23T13:40:28;5.13;;;1.58;;
25948;SDS011;13961;51.178;4.448;2023-04-23T13:42:54;3.33;;;1.13;;
25948;SDS011;13961;51.178;4.448;2023-04-23T13:45:20;3.90;;;1.70;;
25948;SDS011;13961;51.178;4.448;2023-04-23T13:47:46;3.80;;;1.42;;
25948;SDS011;13961;51.178;4.448;2023-04-23T13:50:28;4.60;;;1.20;;
25948;SDS011;13961;51.178;4.448;2023-04-23T13:52:56;2.55;;;1.52;;
25948;SDS011;13961;51.178;4.448;2023-04-23T13:55:22;4.25;;;1.50;;
25948;SDS011;13961;51.178;4.448;2023-04-23T13:57:47;3.30;;;1.60;;
25948;SDS011;13961;51.178;4.448;2023-04-23T14:00:14;3.63;;;1.60;;
25948;SDS011;13961;51.178;4.448;2023-04-23T14:02:39;3.15;;;1.50;;
25948;SDS011;13961;51.178;4.448;2023-04-23T14:05:05;3.05;;;1.60;;
25948;SDS011;13961;51.178;4.448;2023-04-23T14:07:33;3.45;;;1.75;;
25948;SDS011;13961;51.178;4.448;2023-04-23T14:09:59;1.77;;;1.27;;
25948;SDS011;13961;51.178;4.448;2023-04-23T14:12:25;5.05;;;1.35;;
25948;SDS011;13961;51.178;4.448;2023-04-23T14:14:53;3.20;;;1.20;;
25948;SDS011;13961;51.178;4.448;2023-04-23T14:17:19;4.82;;;1.42;;
25948;SDS011;13961;51.178;4.448;2023-04-23T14:19:45;4.63;;;1.55;;
25948;SDS011;13961;51.178;4.448;2023-04-23T14:22:11;4.53;;;1.42;;
25948;SDS011;13961;51.178;4.448;2023-04-23T14:24:38;3.17;;;1.20;;
25948;SDS011;13961;51.178;4.448;2023-04-23T14:27:08;2.65;;;1.38;;
25948;SDS011;13961;51.178;4.448;2023-04-23T14:29:45;3.40;;;1.45;;
25948;SDS011;13961;51.178;4.448;2023-04-23T14:32:21;3.50;;;1.25;;
25948;SDS011;13961;51.178;4.448;2023-04-23T14:34:47;5.15;;;1.52;;
25948;SDS011;13961;51.178;4.448;2023-04-23T14:37:13;2.28;;;1.40;;
25948;SDS011;13961;51.178;4.448;2023-04-23T14:39:41;2.92;;;1.55;;
25948;SDS011;13961;51.178;4.448;2023-04-23T14:42:07;2.60;;;1.50;;
25948;SDS011;13961;51.178;4.448;2023-04-23T14:44:33;6.53;;;1.65;;
25948;SDS011;13961;51.178;4.448;2023-04-23T14:46:59;3.13;;;1.50;;